Time;durP1;ratioP1;P1;durP2;ratioP2;P2;SDS_P1;SDS_P2;PMS_P1;PMS_P2;Temp;Humidity;BMP_temperature;BMP_pressure;BME280_temperature;BME280_humidity;BME280_pressure;Samples;Min_cycle;Max_cycle;Signal;HPM_P1;HPM_P2
2023/09/09 00:01:31;;;;;;;18.33;9.57;;;18.10;99.90;;;;;;5013896;28;20104;-72
2023/09/09 00:03:56;;;;;;;15.73;9.65;;;18.10;99.90;;;;;;5014009;28;20069;-73
2023/09/09 00:06:22;;;;;;;14.93;9.50;;;18.10;99.90;;;;;;5013321;28;20109;-73
2023/09/09 00:08:48;;;;;;;16.27;9.52;;;18.10;99.90;;;;;;5013270;28;20049;-73
2023/09/09 00:11:14;;;;;;;17.42;10.50;;;18.00;99.90;;;;;;5013391;28;20101;-73
2023/09/09 00:13:40;;;;;;;16.08;10.55;;;18.00;99.90;;;;;;5013955;28;20044;-73
2023/09/09 00:16:06;;;;;;;17.27;9.90;;;17.90;99.90;;;;;;5013689;28;20243;-73
2023/09/09 00:18:33;;;;;;;20.08;10.20;;;17.80;99.90;;;;;;5013722;28;20040;-72
2023/09/09 00:20:58;;;;;;;22.40;10.60;;;17.70;99.90;;;;;;5013261;28;20046;-72
2023/09/09 00:23:24;;;;;;;17.48;10.20;;;17.70;99.90;;;;;;5013306;28;20492;-74
2023/09/09 00:25:50;;;;;;;19.58;9.75;;;17.60;99.90;;;;;;5013480;28;20068;-73
2023/09/09 00:28:16;;;;;;;15.18;8.93;;;17.60;99.90;;;;;;5013628;28;20048;-73
2023/09/09 00:30:42;;;;;;;17.00;10.32;;;17.60;99.90;;;;;;5013037;28;20109;-74
2023/09/09 00:33:09;;;;;;;18.40;10.27;;;17.70;99.90;;;;;;4995163;28;20040;-74
2023/09/09 00:35:38;;;;;;;15.70;10.63;;;17.60;99.90;;;;;;5013514;28;20022;-74
2023/09/09 00:38:11;;;;;;;16.33;9.20;;;17.50;99.90;;;;;;5013260;28;20026;-74
2023/09/09 00:40:37;;;;;;;17.42;9.80;;;17.50;99.90;;;;;;4983597;28;20029;-71
2023/09/09 00:43:03;;;;;;;16.55;10.43;;;17.40;99.90;;;;;;5012608;28;20026;-72
2023/09/09 00:45:29;;;;;;;20.10;9.40;;;17.40;99.90;;;;;;4999158;28;20102;-73
2023/09/09 00:47:56;;;;;;;22.02;10.68;;;17.40;99.90;;;;;;4986504;28;20132;-71
2023/09/09 00:50:23;;;;;;;19.75;10.80;;;17.50;99.90;;;;;;5011967;28;20377;-71
2023/09/09 00:52:49;;;;;;;19.20;11.05;;;17.50;99.90;;;;;;4995077;28;20500;-71
2023/09/09 00:55:15;;;;;;;19.10;10.07;;;17.50;99.90;;;;;;5011191;28;20040;-73
2023/09/09 00:57:41;;;;;;;19.25;9.85;;;17.40;99.90;;;;;;4995419;28;20030;-73
2023/09/09 01:00:10;;;;;;;15.55;10.15;;;17.40;99.90;;;;;;4992257;28;20132;-72
2023/09/09 01:02:39;;;;;;;17.17;9.77;;;17.40;99.90;;;;;;4985011;28;20048;-72
2023/09/09 01:05:06;;;;;;;19.15;9.88;;;17.40;99.90;;;;;;5008320;28;20108;-73
2023/09/09 01:07:48;;;;;;;18.35;10.20;;;17.30;99.90;;;;;;4991433;28;20458;-72
2023/09/09 01:10:16;;;;;;;16.67;10.23;;;17.30;99.90;;;;;;4984660;28;20059;-72
2023/09/09 01:12:42;;;;;;;20.13;10.15;;;17.10;99.90;;;;;;4977687;28;20485;-72
2023/09/09 01:15:10;;;;;;;16.13;9.43;;;17.10;99.90;;;;;;4976090;28;20141;-72
2023/09/09 01:17:36;;;;;;;20.77;9.88;;;17.20;99.90;;;;;;4991678;28;20026;-72
2023/09/09 01:20:07;;;;;;;19.63;10.13;;;17.20;99.90;;;;;;4991496;28;20105;-72
2023/09/09 01:22:36;;;;;;;18.00;9.65;;;17.20;99.90;;;;;;4990152;28;20037;-72
2023/09/09 01:25:05;;;;;;;21.90;14.18;;;17.20;99.90;;;;;;4986879;28;20505;-72
2023/09/09 01:27:31;;;;;;;21.15;13.02;;;17.20;99.90;;;;;;4992483;28;20022;-73
2023/09/09 01:29:58;;;;;;;16.70;10.48;;;17.20;99.90;;;;;;4973821;28;20030;-74
2023/09/09 01:32:24;;;;;;;16.20;9.10;;;17.30;99.90;;;;;;4973867;28;20018;-74
2023/09/09 01:34:51;;;;;;;15.30;9.73;;;17.30;99.90;;;;;;4990864;28;20560;-72
2023/09/09 01:37:17;;;;;;;16.92;9.32;;;17.30;99.90;;;;;;4973396;28;20034;-72
2023/09/09 01:39:44;;;;;;;15.02;9.15;;;17.30;99.90;;;;;;4987225;28;20054;-72
2023/09/09 01:42:10;;;;;;;14.18;8.40;;;17.20;99.90;;;;;;4991237;28;20029;-72
2023/09/09 01:44:37;;;;;;;16.45;8.52;;;17.10;99.90;;;;;;4984993;28;20031;-72
2023/09/09 01:47:03;;;;;;;15.88;9.73;;;17.10;99.90;;;;;;4970754;28;20504;-73
2023/09/09 01:49:29;;;;;;;14.25;8.55;;;17.10;99.90;;;;;;4992580;28;20356;-72
2023/09/09 01:51:55;;;;;;;16.70;8.82;;;17.10;99.90;;;;;;4974801;28;20053;-72
2023/09/09 01:54:20;;;;;;;16.50;8.68;;;17.00;99.90;;;;;;4992220;28;20048;-72
2023/09/09 01:56:46;;;;;;;14.13;9.18;;;17.00;99.90;;;;;;4974594;28;20076;-72
2023/09/09 01:59:12;;;;;;;14.82;8.57;;;17.00;99.90;;;;;;4975048;28;20038;-72
2023/09/09 02:01:38;;;;;;;15.13;8.88;;;17.00;99.90;;;;;;4974717;28;20027;-72
2023/09/09 02:04:04;;;;;;;14.75;9.30;;;17.00;99.90;;;;;;4974973;28;20041;-72
2023/09/09 02:06:30;;;;;;;15.30;8.43;;;17.00;99.90;;;;;;4980363;28;20034;-72
2023/09/09 02:08:56;;;;;;;14.57;8.48;;;17.00;99.90;;;;;;5003917;28;20053;-73
2023/09/09 02:11:21;;;;;;;13.77;7.70;;;17.00;99.90;;;;;;4992839;28;20484;-71
2023/09/09 02:13:47;;;;;;;14.10;8.73;;;17.00;99.90;;;;;;4994129;28;20518;-74
2023/09/09 02:16:13;;;;;;;13.70;8.57;;;17.00;99.90;;;;;;4994267;28;20371;-74
2023/09/09 02:18:40;;;;;;;12.43;8.65;;;16.90;99.90;;;;;;5011294;28;20025;-70
2023/09/09 02:21:07;;;;;;;18.70;9.75;;;16.90;99.90;;;;;;4994371;28;20037;-72
2023/09/09 02:23:33;;;;;;;19.40;9.55;;;16.90;99.90;;;;;;5011224;28;20026;-72
2023/09/09 02:25:59;;;;;;;15.52;7.97;;;16.90;99.90;;;;;;4994305;28;20026;-72
2023/09/09 02:28:25;;;;;;;18.63;9.43;;;16.80;99.90;;;;;;5011642;28;20029;-72
2023/09/09 02:30:51;;;;;;;16.27;8.40;;;16.80;99.90;;;;;;5010755;28;20038;-72
2023/09/09 02:33:17;;;;;;;15.27;8.80;;;16.80;99.90;;;;;;4997972;28;20362;-72
2023/09/09 02:35:44;;;;;;;17.10;8.77;;;16.80;99.90;;;;;;4997566;28;20095;-72
2023/09/09 02:38:09;;;;;;;12.95;6.90;;;16.80;99.90;;;;;;4997980;28;20061;-72
2023/09/09 02:40:36;;;;;;;14.05;8.15;;;;;;;;;;4996364;28;20049;-73
2023/09/09 02:43:02;;;;;;;12.43;7.70;;;15.80;99.90;;;;;;5015393;28;20113;-72
2023/09/09 02:45:28;;;;;;;17.67;9.38;;;16.90;99.90;;;;;;5010121;28;20499;-72
2023/09/09 02:47:54;;;;;;;16.02;8.73;;;16.80;99.90;;;;;;4989419;28;20031;-72
2023/09/09 02:50:20;;;;;;;14.57;8.82;;;16.80;99.90;;;;;;4995840;28;20037;-72
2023/09/09 02:52:50;;;;;;;15.13;9.57;;;16.80;99.90;;;;;;5013892;28;20038;-72
2023/09/09 02:55:16;;;;;;;14.30;8.82;;;16.70;99.90;;;;;;4994167;28;20034;-72
2023/09/09 02:57:46;;;;;;;16.38;9.10;;;16.80;99.90;;;;;;5008517;28;20022;-73
2023/09/09 03:00:13;;;;;;;13.50;8.60;;;16.70;99.90;;;;;;4983024;28;20745;-73
2023/09/09 03:02:42;;;;;;;16.55;9.40;;;16.80;99.90;;;;;;4994033;28;20026;-72
2023/09/09 03:05:09;;;;;;;15.93;9.82;;;16.80;99.90;;;;;;5015171;28;20030;-73
2023/09/09 03:07:35;;;;;;;15.65;9.82;;;16.60;99.90;;;;;;4997225;28;20052;-72
2023/09/09 03:10:02;;;;;;;16.67;9.77;;;16.50;99.90;;;;;;4997097;28;20049;-72
2023/09/09 03:12:29;;;;;;;18.08;9.75;;;16.40;99.90;;;;;;4995630;28;20025;-73
2023/09/09 03:14:55;;;;;;;17.73;9.25;;;;;;;;;;4997185;28;20045;-72
2023/09/09 03:17:21;;;;;;;14.52;9.48;;;16.30;99.90;;;;;;4996879;28;20394;-72
2023/09/09 03:19:47;;;;;;;18.92;10.57;;;16.30;99.90;;;;;;4997335;28;20076;-72
2023/09/09 03:22:13;;;;;;;16.23;10.18;;;16.20;99.90;;;;;;4995189;28;20034;-73
2023/09/09 03:24:39;;;;;;;16.50;9.82;;;16.30;99.90;;;;;;4996998;28;20033;-73
2023/09/09 03:27:05;;;;;;;18.25;10.63;;;16.20;99.90;;;;;;5012495;28;20099;-72
2023/09/09 03:29:31;;;;;;;17.67;9.63;;;16.20;99.90;;;;;;4996944;28;20367;-72
2023/09/09 03:31:57;;;;;;;17.42;9.82;;;16.20;99.90;;;;;;4996774;28;20105;-71
2023/09/09 03:34:22;;;;;;;16.13;9.45;;;16.20;99.90;;;;;;5012801;28;20049;-74
2023/09/09 03:36:48;;;;;;;11.55;7.57;;;16.20;99.90;;;;;;4996875;28;20175;-73
2023/09/09 03:39:15;;;;;;;27.23;9.30;;;16.20;99.90;;;;;;5014323;28;20026;-72
2023/09/09 03:41:40;;;;;;;16.65;8.40;;;16.20;99.90;;;;;;4996876;28;20025;-72
2023/09/09 03:44:06;;;;;;;16.27;9.27;;;16.20;99.90;;;;;;4994138;28;20057;-72
2023/09/09 03:46:32;;;;;;;19.38;10.73;;;16.10;99.90;;;;;;4996664;28;20482;-72
2023/09/09 03:48:59;;;;;;;15.68;9.52;;;16.10;99.90;;;;;;4996431;28;20060;-72
2023/09/09 03:51:26;;;;;;;17.35;9.57;;;16.10;99.90;;;;;;4996374;28;20430;-72
2023/09/09 03:53:52;;;;;;;18.38;10.15;;;16.20;99.90;;;;;;4994822;28;20088;-72
2023/09/09 03:56:18;;;;;;;16.30;9.23;;;16.10;99.90;;;;;;4995861;28;20121;-72
2023/09/09 03:58:46;;;;;;;18.60;9.73;;;16.10;99.90;;;;;;5014150;28;20053;-72
2023/09/09 04:01:12;;;;;;;18.00;11.02;;;16.10;99.90;;;;;;5013853;28;20017;-72
2023/09/09 04:03:40;;;;;;;16.70;10.50;;;16.10;99.90;;;;;;4996763;28;20026;-72
2023/09/09 04:06:11;;;;;;;18.02;10.68;;;16.10;99.90;;;;;;5004652;28;20029;-72
2023/09/09 04:08:40;;;;;;;14.57;9.10;;;16.00;99.90;;;;;;4996411;28;20469;-72
2023/09/09 04:11:06;;;;;;;16.92;11.02;;;15.90;99.90;;;;;;4995661;28;20117;-72
2023/09/09 04:13:37;;;;;;;16.17;10.40;;;15.90;99.90;;;;;;4996378;28;20660;-72
2023/09/09 04:16:03;;;;;;;20.10;9.88;;;15.90;99.90;;;;;;4996158;28;20452;-72
2023/09/09 04:18:30;;;;;;;17.58;9.50;;;16.00;99.90;;;;;;4995881;28;20026;-72
2023/09/09 04:20:56;;;;;;;20.15;9.82;;;16.00;99.90;;;;;;4996103;28;20033;-71
2023/09/09 04:23:22;;;;;;;15.07;10.23;;;16.10;99.90;;;;;;4995177;28;20022;-73
2023/09/09 04:25:48;;;;;;;22.52;10.77;;;16.10;99.90;;;;;;5009769;28;20172;-72
2023/09/09 04:28:14;;;;;;;18.15;10.20;;;16.20;99.90;;;;;;4995091;28;20169;-72
2023/09/09 04:30:42;;;;;;;15.27;9.30;;;16.30;99.90;;;;;;5013058;28;20026;-72
2023/09/09 04:33:12;;;;;;;16.23;9.40;;;16.50;99.90;;;;;;5005583;28;20103;-73
2023/09/09 04:35:42;;;;;;;20.92;10.73;;;16.80;99.90;;;;;;4995642;28;20062;-73
2023/09/09 04:38:09;;;;;;;18.13;9.98;;;17.00;99.90;;;;;;4995670;28;20029;-73
2023/09/09 04:40:40;;;;;;;17.58;9.18;;;17.40;99.90;;;;;;4995588;28;20060;-73
2023/09/09 04:43:07;;;;;;;17.95;9.90;;;17.70;99.90;;;;;;4995696;28;20025;-72
2023/09/09 04:45:35;;;;;;;14.93;9.48;;;18.10;99.90;;;;;;4995196;28;20096;-73
2023/09/09 04:48:01;;;;;;;19.83;9.27;;;18.40;99.90;;;;;;4994877;28;20053;-73
2023/09/09 04:50:27;;;;;;;16.10;9.45;;;18.70;99.90;;;;;;4995340;28;20022;-73
2023/09/09 04:52:54;;;;;;;18.92;10.45;;;19.00;99.90;;;;;;4995206;28;20037;-73
2023/09/09 04:55:20;;;;;;;16.05;9.10;;;19.30;99.90;;;;;;5012807;28;20034;-73
2023/09/09 04:57:46;;;;;;;28.75;10.07;;;19.60;99.90;;;;;;4995046;28;20087;-72
2023/09/09 05:00:14;;;;;;;15.35;9.88;;;19.90;99.90;;;;;;4987243;28;20048;-74
2023/09/09 05:02:40;;;;;;;15.45;9.27;;;20.40;99.90;;;;;;4988589;28;20026;-74
2023/09/09 05:05:07;;;;;;;16.25;9.90;;;20.60;99.90;;;;;;4992484;28;20367;-73
2023/09/09 05:07:35;;;;;;;14.40;9.00;;;20.80;99.90;;;;;;4996788;28;20129;-72
2023/09/09 05:10:04;;;;;;;26.77;10.98;;;21.20;99.90;;;;;;4994345;28;20046;-72
2023/09/09 05:12:32;;;;;;;22.73;11.43;;;21.50;99.30;;;;;;4994266;28;20520;-72
2023/09/09 05:14:58;;;;;;;17.98;11.00;;;21.80;98.60;;;;;;4994580;28;20045;-71
2023/09/09 05:17:24;;;;;;;20.95;11.18;;;22.10;98.20;;;;;;5011883;28;20018;-71
2023/09/09 05:19:50;;;;;;;18.88;10.20;;;22.00;97.90;;;;;;5006537;28;20025;-72
2023/09/09 05:22:16;;;;;;;18.02;10.40;;;21.90;97.70;;;;;;4991745;28;20442;-71
2023/09/09 05:24:43;;;;;;;24.45;12.57;;;21.80;98.00;;;;;;4987695;28;20029;-71
2023/09/09 05:27:09;;;;;;;20.80;12.68;;;21.00;99.00;;;;;;4987928;28;20406;-72
2023/09/09 05:29:35;;;;;;;20.92;13.70;;;20.20;99.90;;;;;;4994777;28;20037;-72
2023/09/09 05:32:01;;;;;;;20.58;13.80;;;19.90;99.90;;;;;;4994645;28;20037;-71
2023/09/09 05:34:27;;;;;;;22.40;14.07;;;19.60;99.90;;;;;;4994285;28;20049;-71
2023/09/09 05:36:53;;;;;;;20.15;13.50;;;19.50;99.90;;;;;;4994133;28;21122;-72
2023/09/09 05:39:19;;;;;;;23.50;14.45;;;19.30;99.90;;;;;;5012336;28;20026;-72
2023/09/09 05:41:45;;;;;;;24.13;15.70;;;19.20;99.90;;;;;;4994194;28;20041;-73
2023/09/09 05:44:12;;;;;;;20.50;14.27;;;18.90;99.90;;;;;;5007696;28;20095;-72
2023/09/09 05:46:38;;;;;;;22.02;13.93;;;18.80;99.90;;;;;;5012037;28;20026;-71
2023/09/09 05:49:04;;;;;;;23.33;14.20;;;18.70;99.90;;;;;;4994268;28;20038;-72
2023/09/09 05:51:30;;;;;;;26.05;14.13;;;18.80;99.90;;;;;;4994613;28;20121;-73
2023/09/09 05:53:56;;;;;;;35.50;14.13;;;19.00;99.90;;;;;;4981175;28;20104;-72
2023/09/09 05:56:22;;;;;;;20.85;13.05;;;19.10;99.90;;;;;;4993791;28;20037;-71
2023/09/09 05:58:47;;;;;;;21.02;13.82;;;19.20;99.90;;;;;;4994150;28;20396;-72
2023/09/09 06:01:13;;;;;;;24.58;14.02;;;19.30;99.90;;;;;;4994061;28;20026;-72
2023/09/09 06:03:40;;;;;;;19.45;13.18;;;19.30;99.90;;;;;;4994365;28;20033;-72
2023/09/09 06:06:06;;;;;;;20.17;12.48;;;19.60;99.90;;;;;;4996706;28;20592;-72
2023/09/09 06:08:32;;;;;;;20.13;12.85;;;19.80;99.90;;;;;;5017984;28;20687;-73
2023/09/09 06:10:58;;;;;;;19.20;12.95;;;20.00;99.90;;;;;;5001178;28;20125;-71
2023/09/09 06:13:24;;;;;;;21.40;12.60;;;20.10;99.90;;;;;;5018126;28;20033;-72
2023/09/09 06:15:51;;;;;;;20.13;12.75;;;20.10;99.90;;;;;;5001006;28;20033;-72
2023/09/09 06:18:17;;;;;;;22.17;12.93;;;20.30;99.90;;;;;;5000405;28;20105;-72
2023/09/09 06:20:47;;;;;;;19.42;12.60;;;20.70;99.90;;;;;;5000645;28;20457;-71
2023/09/09 06:23:15;;;;;;;24.08;14.13;;;20.60;99.90;;;;;;4998264;28;20346;-72
2023/09/09 06:25:41;;;;;;;22.42;14.30;;;20.60;99.90;;;;;;5000691;28;20408;-72
2023/09/09 06:28:08;;;;;;;22.10;14.45;;;20.80;99.90;;;;;;5000487;28;20025;-72
2023/09/09 06:30:34;;;;;;;26.52;14.32;;;20.80;99.90;;;;;;5000289;28;20075;-72
2023/09/09 06:33:02;;;;;;;21.92;14.48;;;21.10;99.90;;;;;;5000642;28;20116;-72
2023/09/09 06:35:29;;;;;;;22.33;15.38;;;21.20;99.90;;;;;;5000235;28;20030;-72
2023/09/09 06:37:55;;;;;;;23.65;14.98;;;21.30;99.90;;;;;;5000604;28;20037;-72
2023/09/09 06:40:22;;;;;;;26.63;14.95;;;;;;;;;;5017960;28;20033;-72
2023/09/09 06:42:48;;;;;;;24.75;16.10;;;21.80;99.90;;;;;;5018429;28;20026;-72
2023/09/09 06:45:16;;;;;;;25.25;16.35;;;21.90;99.90;;;;;;5000737;28;20397;-72
2023/09/09 06:47:42;;;;;;;30.60;15.23;;;;;;;;;;5018235;28;20034;-72
2023/09/09 06:50:08;;;;;;;27.33;16.25;;;22.30;99.90;;;;;;5017921;28;20021;-71
2023/09/09 06:52:33;;;;;;;25.30;16.40;;;22.50;99.90;;;;;;5018064;28;20501;-72
2023/09/09 06:54:59;;;;;;;23.27;15.73;;;22.50;99.90;;;;;;5017892;28;20049;-72
2023/09/09 06:57:25;;;;;;;26.20;15.55;;;22.40;99.90;;;;;;5017948;28;20084;-73
2023/09/09 06:59:51;;;;;;;22.67;15.93;;;22.70;99.90;;;;;;5000750;28;20030;-72
2023/09/09 07:02:17;;;;;;;21.85;15.68;;;22.80;99.90;;;;;;5017980;28;20053;-72
2023/09/09 07:04:44;;;;;;;27.02;15.93;;;23.00;98.50;;;;;;5017956;28;20022;-72
2023/09/09 07:07:10;;;;;;;33.97;17.17;;;22.70;99.80;;;;;;5017793;28;20582;-72
2023/09/09 07:09:36;;;;;;;24.23;16.40;;;23.00;98.90;;;;;;5018083;28;20053;-72
2023/09/09 07:12:02;;;;;;;29.95;16.08;;;23.20;98.40;;;;;;5017963;28;20072;-72
2023/09/09 07:14:29;;;;;;;24.38;16.30;;;;;;;;;;5017821;28;20386;-72
2023/09/09 07:16:55;;;;;;;22.60;16.20;;;23.40;99.90;;;;;;5017075;28;20018;-72
2023/09/09 07:19:21;;;;;;;20.38;14.63;;;23.20;97.70;;;;;;5013807;28;20363;-72
2023/09/09 07:21:47;;;;;;;22.13;15.13;;;23.60;97.40;;;;;;5014996;28;20037;-72
2023/09/09 07:24:13;;;;;;;19.70;13.70;;;23.60;96.50;;;;;;5014727;28;20064;-72
2023/09/09 07:26:39;;;;;;;20.75;13.85;;;23.90;97.90;;;;;;5014816;28;20029;-72
2023/09/09 07:29:04;;;;;;;25.27;14.07;;;24.10;96.50;;;;;;5014362;28;20117;-72
2023/09/09 07:31:30;;;;;;;23.05;14.20;;;24.20;96.20;;;;;;5014812;28;20030;-72
2023/09/09 07:33:56;;;;;;;19.10;13.25;;;24.50;95.00;;;;;;5013851;28;20409;-72
2023/09/09 07:36:22;;;;;;;26.00;14.30;;;24.70;94.90;;;;;;5014774;28;20030;-72
2023/09/09 07:38:48;;;;;;;19.10;13.57;;;25.00;95.00;;;;;;5013993;28;20083;-72
2023/09/09 07:41:13;;;;;;;23.17;14.10;;;25.20;94.80;;;;;;5014580;28;20022;-72
2023/09/09 07:43:39;;;;;;;21.45;14.73;;;25.30;93.10;;;;;;5014203;28;20034;-73
2023/09/09 07:46:05;;;;;;;22.00;14.00;;;25.40;93.80;;;;;;5014531;28;20065;-71
2023/09/09 07:48:31;;;;;;;25.20;14.43;;;25.40;93.00;;;;;;5013955;28;20053;-71
2023/09/09 07:50:59;;;;;;;27.55;16.17;;;24.80;92.50;;;;;;5014026;28;20038;-72
2023/09/09 07:53:25;;;;;;;23.92;15.45;;;25.20;93.60;;;;;;5013986;28;20040;-72
2023/09/09 07:55:51;;;;;;;20.98;14.65;;;24.90;92.90;;;;;;5014238;28;20018;-71
2023/09/09 07:58:18;;;;;;;24.38;14.98;;;25.20;93.60;;;;;;5013961;28;20477;-72
2023/09/09 08:00:45;;;;;;;23.23;13.90;;;25.50;94.30;;;;;;5013900;28;20026;-72
2023/09/09 08:03:11;;;;;;;22.95;13.05;;;25.30;92.00;;;;;;5013840;28;20466;-72
2023/09/09 08:05:38;;;;;;;29.92;14.18;;;25.40;92.30;;;;;;5013950;28;20092;-72
2023/09/09 08:08:05;;;;;;;22.95;12.82;;;25.50;91.40;;;;;;5013373;28;20034;-71
2023/09/09 08:10:31;;;;;;;15.60;8.95;;;25.30;90.90;;;;;;5013713;28;20054;-71
2023/09/09 08:12:57;;;;;;;21.58;8.88;;;25.60;90.80;;;;;;5013488;28;20064;-71
2023/09/09 08:15:23;;;;;;;14.60;8.85;;;25.40;90.90;;;;;;5013947;28;20042;-72
2023/09/09 08:17:49;;;;;;;16.27;9.15;;;25.40;90.80;;;;;;5013596;28;20018;-72
2023/09/09 08:20:15;;;;;;;18.15;9.60;;;25.10;90.10;;;;;;5013628;28;20029;-71
2023/09/09 08:22:40;;;;;;;24.83;10.07;;;25.40;91.10;;;;;;5013519;28;20038;-72
2023/09/09 08:25:06;;;;;;;21.98;9.73;;;25.50;90.40;;;;;;5013811;28;20112;-72
2023/09/09 08:27:32;;;;;;;15.32;9.80;;;25.40;89.80;;;;;;5013105;28;20030;-72
2023/09/09 08:29:58;;;;;;;15.70;9.05;;;25.40;90.50;;;;;;5013531;28;20033;-71
2023/09/09 08:32:24;;;;;;;15.20;8.00;;;25.60;89.40;;;;;;5013515;28;20129;-71
2023/09/09 08:34:54;;;;;;;15.88;7.05;;;25.80;90.30;;;;;;5013655;28;20070;-71
2023/09/09 08:37:20;;;;;;;14.27;7.53;;;25.70;87.60;;;;;;5013309;28;20029;-72
2023/09/09 08:39:49;;;;;;;22.98;7.32;;;25.90;88.20;;;;;;5013348;28;20066;-72
2023/09/09 08:42:46;;;;;;;10.35;6.47;;;26.30;89.90;;;;;;5013642;28;20497;-71
2023/09/09 08:45:38;;;;;;;12.80;6.75;;;26.20;84.50;;;;;;5013059;28;20425;-71
2023/09/09 08:48:09;;;;;;;13.57;6.53;;;26.20;86.80;;;;;;4982752;28;20476;-71
2023/09/09 08:50:37;;;;;;;;;;;26.40;82.60;;;;;;4995934;28;20029;-72
2023/09/09 08:53:05;;;;;;;14.07;6.38;;;26.70;85.90;;;;;;5013066;28;19913;-72
2023/09/09 08:55:31;;;;;;;10.98;5.80;;;26.70;83.40;;;;;;5012936;28;20030;-72
2023/09/09 08:57:57;;;;;;;12.30;5.05;;;26.80;83.20;;;;;;5012791;28;20378;-71
2023/09/09 09:00:33;;;;;;;10.80;6.18;;;26.50;83.30;;;;;;5012990;28;20036;-71
2023/09/09 09:03:02;;;;;;;9.95;5.80;;;26.80;83.20;;;;;;5012896;28;20525;-71
2023/09/09 09:05:32;;;;;;;11.52;6.00;;;26.80;81.00;;;;;;5012879;28;20033;-71
2023/09/09 09:08:02;;;;;;;12.55;7.15;;;27.20;82.80;;;;;;5012811;28;20030;-70
2023/09/09 09:10:28;;;;;;;12.45;7.60;;;27.20;82.70;;;;;;5012787;28;20069;-72
2023/09/09 09:12:54;;;;;;;17.35;9.30;;;27.30;84.80;;;;;;4994938;28;20060;-72
2023/09/09 09:15:24;;;;;;;15.43;10.00;;;27.30;84.80;;;;;;5013020;28;20508;-72
2023/09/09 09:17:53;;;;;;;21.50;9.00;;;27.20;84.40;;;;;;4999392;28;20030;-72
2023/09/09 09:20:30;;;;;;;15.13;7.95;;;27.10;87.30;;;;;;5012451;28;20045;-71
2023/09/09 09:23:05;;;;;;;21.80;8.63;;;27.30;82.80;;;;;;5012716;28;20034;-71
2023/09/09 09:25:56;;;;;;;21.77;8.50;;;27.50;82.00;;;;;;5012369;28;20100;-72
2023/09/09 09:28:27;;;;;;;15.30;8.52;;;27.40;82.80;;;;;;5008648;28;20046;-72
2023/09/09 09:30:53;;;;;;;19.42;8.02;;;27.30;81.70;;;;;;5012556;28;20037;-71
2023/09/09 09:33:25;;;;;;;12.88;6.07;;;27.40;82.00;;;;;;5011854;28;20041;-72
2023/09/09 09:35:51;;;;;;;10.82;5.82;;;27.70;82.10;;;;;;5012511;28;20034;-71
2023/09/09 09:38:18;;;;;;;10.13;5.00;;;27.70;81.20;;;;;;5012088;28;20525;-71
2023/09/09 09:40:44;;;;;;;11.40;5.18;;;27.80;80.70;;;;;;5011914;28;20470;-72
2023/09/09 09:43:18;;;;;;;8.15;3.83;;;28.10;81.60;;;;;;5011882;28;20026;-72
2023/09/09 09:45:44;;;;;;;10.00;4.28;;;28.00;77.30;;;;;;5012240;28;20030;-72
2023/09/09 09:48:09;;;;;;;6.35;3.90;;;28.30;77.40;;;;;;5011901;28;20037;-71
2023/09/09 09:50:37;;;;;;;8.38;3.78;;;28.20;76.50;;;;;;5011972;28;20104;-72
2023/09/09 09:53:04;;;;;;;11.80;4.35;;;28.40;77.50;;;;;;5012118;28;20067;-72
2023/09/09 09:55:32;;;;;;;8.20;4.68;;;28.50;75.40;;;;;;5011746;28;20088;-71
2023/09/09 09:58:00;;;;;;;7.85;4.18;;;28.30;76.10;;;;;;5012689;28;20122;-71
2023/09/09 10:00:27;;;;;;;7.95;4.25;;;28.40;77.40;;;;;;5011852;28;20076;-72
2023/09/09 10:02:55;;;;;;;9.02;4.00;;;28.40;75.50;;;;;;5012033;28;20040;-71
2023/09/09 10:05:22;;;;;;;10.82;4.88;;;28.10;74.70;;;;;;4999091;28;20026;-72
2023/09/09 10:07:57;;;;;;;8.77;3.03;;;28.10;75.50;;;;;;5011982;28;20113;-71
2023/09/09 10:10:24;;;;;;;6.35;3.10;;;28.30;71.50;;;;;;5011887;28;20041;-71
2023/09/09 10:12:58;;;;;;;5.68;3.22;;;28.30;72.00;;;;;;5011658;28;20437;-71
2023/09/09 10:15:26;;;;;;;7.47;2.78;;;28.30;71.20;;;;;;5012274;28;20041;-72
2023/09/09 10:17:52;;;;;;;5.07;2.88;;;28.60;73.70;;;;;;5011399;28;20068;-72
2023/09/09 10:20:18;;;;;;;6.68;3.28;;;28.50;70.10;;;;;;5012023;28;20548;-71
2023/09/09 10:22:47;;;;;;;5.47;2.88;;;28.40;70.90;;;;;;5011564;28;20030;-71
2023/09/09 10:25:14;;;;;;;7.18;3.35;;;28.70;72.60;;;;;;5012014;28;20022;-71
2023/09/09 10:27:40;;;;;;;6.30;2.50;;;28.90;87.90;;;;;;5011658;28;20048;-72
2023/09/09 10:30:10;;;;;;;4.55;2.45;;;29.10;92.40;;;;;;5011672;28;20085;-71
2023/09/09 10:32:37;;;;;;;3.00;2.13;;;29.10;73.20;;;;;;4999434;28;20542;-72
2023/09/09 10:35:06;;;;;;;3.75;2.10;;;29.20;70.20;;;;;;5011296;28;20041;-72
2023/09/09 10:37:37;;;;;;;4.65;2.72;;;;;;;;;;5011809;28;20105;-72
2023/09/09 10:40:05;;;;;;;6.35;2.28;;;29.20;73.20;;;;;;5011432;28;20033;-72
2023/09/09 10:42:34;;;;;;;15.75;4.38;;;29.00;73.30;;;;;;5011842;28;20030;-72
2023/09/09 10:45:22;;;;;;;6.28;2.67;;;28.90;76.50;;;;;;5011760;28;20053;-72
2023/09/09 10:48:01;;;;;;;4.57;2.42;;;29.10;77.30;;;;;;5011592;28;20049;-71
2023/09/09 10:50:45;;;;;;;4.18;2.30;;;29.10;79.10;;;;;;4998666;28;20156;-71
2023/09/09 10:53:28;;;;;;;6.45;2.30;;;29.00;80.50;;;;;;5014067;28;20041;-72
2023/09/09 10:55:59;;;;;;;5.85;2.88;;;29.00;78.40;;;;;;5015439;28;20053;-72
2023/09/09 10:58:37;;;;;;;3.70;2.28;;;29.10;80.60;;;;;;5015355;28;20030;-71
2023/09/09 11:01:06;;;;;;;4.53;2.47;;;29.10;79.60;;;;;;5015041;28;20030;-71
2023/09/09 11:03:41;;;;;;;8.10;2.83;;;29.20;82.20;;;;;;5015062;28;20064;-72
2023/09/09 11:06:11;;;;;;;3.95;2.35;;;29.20;78.20;;;;;;5014873;28;20034;-71
2023/09/09 11:08:40;;;;;;;6.63;2.80;;;28.60;89.20;;;;;;5014745;28;20038;-71
2023/09/09 11:11:11;;;;;;;8.23;2.92;;;29.30;70.40;;;;;;5014929;28;20030;-71
2023/09/09 11:13:50;;;;;;;3.87;2.83;;;29.40;85.70;;;;;;5015175;28;20064;-72
2023/09/09 11:16:39;;;;;;;11.55;2.90;;;;;;;;;;5014724;28;20442;-71
2023/09/09 11:19:10;;;;;;;5.65;2.97;;;;;;;;;;5014587;28;20466;-72
2023/09/09 11:21:41;;;;;;;5.10;2.67;;;29.50;78.70;;;;;;5014974;28;20038;-72
2023/09/09 11:24:08;;;;;;;5.65;3.65;;;;;;;;;;5014438;28;20439;-71
2023/09/09 11:26:38;;;;;;;12.07;3.58;;;29.60;72.90;;;;;;5014864;28;20026;-71
2023/09/09 11:29:06;;;;;;;5.68;3.50;;;29.30;75.10;;;;;;5014777;28;20030;-71
2023/09/09 11:31:32;;;;;;;3.92;3.10;;;29.30;74.20;;;;;;5014576;28;20540;-71
2023/09/09 11:33:58;;;;;;;6.43;3.38;;;29.20;75.70;;;;;;5014306;28;20041;-71
2023/09/09 11:36:24;;;;;;;6.55;3.70;;;29.30;76.70;;;;;;5014605;28;20026;-71
2023/09/09 11:38:51;;;;;;;8.75;3.50;;;29.30;76.10;;;;;;5014091;28;20026;-71
2023/09/09 11:41:21;;;;;;;7.65;3.53;;;29.40;76.60;;;;;;5014417;28;20061;-71
2023/09/09 11:44:22;;;;;;;8.00;3.85;;;29.40;77.90;;;;;;5014542;28;20034;-72
2023/09/09 11:46:49;;;;;;;7.90;4.18;;;29.50;77.50;;;;;;4934814;29;20472;-72
2023/09/09 11:49:18;;;;;;;10.55;3.67;;;29.50;78.60;;;;;;4934376;29;20040;-71
2023/09/09 11:51:45;;;;;;;6.32;3.72;;;29.40;77.00;;;;;;4934570;29;20480;-71
2023/09/09 11:54:18;;;;;;;5.60;3.00;;;29.40;78.60;;;;;;4934327;29;20107;-71
2023/09/09 11:56:44;;;;;;;6.15;3.55;;;29.30;78.30;;;;;;4934507;29;20480;-72
2023/09/09 11:59:10;;;;;;;6.53;3.70;;;29.20;79.50;;;;;;4918804;29;20067;-71
2023/09/09 12:01:43;;;;;;;7.20;3.55;;;29.20;79.30;;;;;;4934322;29;20148;-72
2023/09/09 12:04:10;;;;;;;7.53;3.90;;;29.10;80.30;;;;;;4933697;29;20119;-73
2023/09/09 12:06:37;;;;;;;12.35;4.20;;;29.20;82.00;;;;;;4934100;29;20039;-72
2023/09/09 12:09:05;;;;;;;8.27;3.65;;;29.10;82.30;;;;;;4934372;29;20048;-72
2023/09/09 12:11:32;;;;;;;7.53;4.25;;;29.20;84.10;;;;;;4934027;29;20499;-71
2023/09/09 12:14:00;;;;;;;7.28;3.28;;;29.20;80.10;;;;;;4918119;29;20075;-72
2023/09/09 12:16:28;;;;;;;7.32;3.80;;;29.40;80.40;;;;;;4934549;29;20496;-71
2023/09/09 12:18:55;;;;;;;6.15;3.65;;;;;;;;;;4933484;29;20396;-72
2023/09/09 12:21:21;;;;;;;7.57;3.63;;;;;;;;;;4987411;28;20026;-71
2023/09/09 12:23:47;;;;;;;6.68;3.63;;;29.50;90.20;;;;;;5013179;28;20026;-71
2023/09/09 12:26:18;;;;;;;7.68;3.95;;;29.60;90.00;;;;;;5013715;28;20026;-71
2023/09/09 12:29:03;;;;;;;10.17;4.33;;;29.50;90.50;;;;;;5013243;28;20116;-71
2023/09/09 12:31:29;;;;;;;6.38;3.67;;;29.40;89.50;;;;;;5013476;28;20034;-72
2023/09/09 12:33:55;;;;;;;9.15;3.80;;;29.30;87.60;;;;;;5013269;28;20031;-72
2023/09/09 12:36:21;;;;;;;11.20;3.88;;;29.30;90.10;;;;;;5013343;28;20501;-71
2023/09/09 12:38:50;;;;;;;7.53;4.00;;;29.30;90.30;;;;;;5013332;28;20065;-72
2023/09/09 12:41:20;;;;;;;6.22;3.80;;;29.40;89.70;;;;;;5013289;28;20109;-72